Buoy 52670

sailwx.info

Track history (hours):
 
Tides and Currents Weather Stations Pressure Air Temp Water Temp Dewpoint Dewpoint Depression Visibility Wind Speed Wind Dir Waves Ship Positions

Drifting buoy 52670

Last reported at 2018-Apr-10 19:00 UTC. Time now 2018-Apr-25 21:38 UTC.
Position N 15°02' E 121°52'.
Warning: this ship's position is 15 days out of date.

Water temperature 26.9 ° C

Date/timePositionNaut miles runAvg speedWind from/ knotsBaromVisibWave heightAir tempDewpointWater temp
2018-Apr-10 19:00N 15°02' E 121°52'0 0.0 26.9
2018-Apr-10 14:15N 15°02' E 121°52'0 0.0 27.1
2018-Apr-10 13:45N 15°02' E 121°52'0 0.0 27.1
2018-Apr-10 13:30N 15°02' E 121°52'1 0.8 27.1
2018-Apr-10 12:45N 15°01' E 121°52'0 0.0 27.1
2018-Apr-10 12:30N 15°01' E 121°52'1 1.2 27.1
2018-Apr-10 12:00N 15°02' E 121°52'0 0.0 27.1
2018-Apr-10 11:45N 15°02' E 121°52'0 0.0 27.1
2018-Apr-10 10:45N 15°02' E 121°52'0 0.0 27.1
2018-Apr-10 10:30N 15°02' E 121°52'0 0.0 27.1
2018-Apr-10 10:15N 15°02' E 121°52'0 0.0 27.1
2018-Apr-10 09:45N 15°02' E 121°52'1 3.3 27.2
2018-Apr-10 09:30N 15°02' E 121°52'0 0.0 27.3
2018-Apr-10 08:45N 15°02' E 121°52'1 1.2 27.4
2018-Apr-10 08:15N 15°02' E 121°52'0 0.0 27.4
2018-Apr-10 08:00N 15°02' E 121°52'0 0.0 27.4
2018-Apr-10 06:30N 15°02' E 121°52'0 0.0 27.3
2018-Apr-10 06:15N 15°02' E 121°52'1 0.2 27.4
2018-Apr-10 02:30N 15°02' E 121°52'0 0.0 27.2
2018-Apr-10 02:15N 15°02' E 121°52'0 0.0 27.2
2018-Apr-10 00:45N 15°02' E 121°52'0 0.0 060 / 211005.9 9.3 7.027.1
2018-Apr-09 23:45N 15°02' E 121°52'0 0.0 26.5
2018-Apr-09 23:30N 15°02' E 121°52'0 0.0 25.9
2018-Apr-09 22:00N 15°02' E 121°52'0 0.0 26.0
2018-Apr-09 21:00N 15°02' E 121°52'0 0.0 26.1
2018-Apr-09 20:45N 15°02' E 121°52'0 0.0 26.1
2018-Apr-09 20:15N 15°02' E 121°52'0 0.0 26.0
2018-Apr-09 19:15N 15°02' E 121°52'0 0.0 26.0
2018-Apr-09 19:00N 15°02' E 121°52'0 0.0 25.9
2018-Apr-09 14:00N 15°02' E 121°52'0 0.0 25.2
2018-Apr-09 13:45N 15°02' E 121°52'0 0.0 25.3
2018-Apr-09 13:00N 15°02' E 121°52'0 0.0 25.8
2018-Apr-09 12:45N 15°02' E 121°52'0 0.0 25.8
2018-Apr-09 12:30N 15°02' E 121°52'1 2.4 25.9
2018-Apr-09 12:15N 15°01' E 121°52'0 0.0 25.9
2018-Apr-09 11:00N 15°01' E 121°52'1 0.8 25.5
2018-Apr-09 10:00N 15°02' E 121°52'0 0.0 26.4
2018-Apr-09 09:15N 15°02' E 121°52'0 0.0 26.0
2018-Apr-09 06:45N 15°02' E 121°52'0 0.0 25.6
2018-Apr-09 06:30N 15°02' E 121°52'1 0.1 25.6
2018-Apr-09 01:15N 15°02' E 121°52'0 0.0 24.5
2018-Apr-09 01:00N 15°02' E 121°52'1 0.8 24.3
2018-Apr-09 00:15N 15°01' E 121°52'0 0.0 25.1
2018-Apr-09 00:00N 15°01' E 121°52'0 0.0 25.5
2018-Apr-08 23:45N 15°01' E 121°52'1 0.8 25.1
2018-Apr-08 23:00N 15°02' E 121°52'1 1.2 24.9
2018-Apr-08 22:30N 15°01' E 121°52'1 2.4 25.1
2018-Apr-08 22:15N 15°02' E 121°52'0 0.0 25.0
2018-Apr-08 22:00N 15°02' E 121°52'0 0.0 25.1
2018-Apr-08 21:30N 15°02' E 121°52'1 3.3 24.9
2018-Apr-08 21:15N 15°01' E 121°52'0 0.0 24.8
2018-Apr-08 21:00N 15°01' E 121°52'0 0.0 24.5
2018-Apr-08 20:45N 15°01' E 121°52'1 0.7 24.5
2018-Apr-08 19:30N 15°02' E 121°52'0 0.0 26.4
2018-Apr-08 19:15N 15°02' E 121°52'1 0.1 26.4
2018-Apr-08 13:30N 15°01' E 121°51'0 0.0 26.4
2018-Apr-08 13:15N 15°01' E 121°51'1 1.7 26.5
2018-Apr-08 12:45N 15°02' E 121°52'0 0.0 26.5
2018-Apr-08 12:30N 15°02' E 121°52'0 0.0 26.5
2018-Apr-08 11:45N 15°02' E 121°52'0 0.0 26.6
2018-Apr-08 11:30N 15°02' E 121°52'1 2.3 26.7
2018-Apr-08 11:15N 15°02' E 121°52'0 0.0 26.6
2018-Apr-08 11:00N 15°02' E 121°52'0 0.0 26.7
2018-Apr-08 10:30N 15°02' E 121°52'0 0.0 26.6
2018-Apr-08 09:45N 15°02' E 121°52'0 0.0 26.8
2018-Apr-08 08:45N 15°02' E 121°52'1 2.3 26.9
2018-Apr-08 08:30N 15°02' E 121°52'0 0.0 26.9
2018-Apr-08 06:45N 15°02' E 121°52'1 0.1 27.7
2018-Apr-08 01:30N 15°02' E 121°52'0 0.0 26.6
2018-Apr-08 00:30N 15°02' E 121°52'1 1.2 26.2
2018-Apr-08 00:00N 15°02' E 121°52'1 0.5 26.0
2018-Apr-07 22:15N 15°01' E 121°52'1 1.2 25.3
2018-Apr-07 21:45N 15°01' E 121°52'0 0.0 25.8
2018-Apr-07 21:30N 15°01' E 121°52'0 0.0 25.9
2018-Apr-07 21:15N 15°01' E 121°52'1 0.4 25.9
2018-Apr-07 19:45N 15°01' E 121°52'0 0.0 25.6
2018-Apr-07 19:30N 15°01' E 121°52'0 0.0 25.6
2018-Apr-07 13:45N 15°01' E 121°52'0 0.0 26.5
2018-Apr-07 13:30N 15°01' E 121°52'0 0.0 26.6
2018-Apr-07 13:00N 15°01' E 121°52'0 0.0 26.6
2018-Apr-07 12:45N 15°01' E 121°52'0 0.0 26.6
2018-Apr-07 12:00N 15°01' E 121°52'1 1.7 26.7
2018-Apr-07 11:30N 15°02' E 121°52'0 0.0 26.8
2018-Apr-07 11:15N 15°02' E 121°52'0 0.0 26.8
2018-Apr-07 10:45N 15°02' E 121°52'0 0.0 26.9
2018-Apr-07 10:30N 15°02' E 121°52'0 0.0 26.8
2018-Apr-07 10:15N 15°02' E 121°52'1 1.2 26.7
2018-Apr-07 09:45N 15°02' E 121°52'1 1.2 26.6
2018-Apr-07 09:15N 15°02' E 121°52'0 0.0 26.9
2018-Apr-07 08:45N 15°02' E 121°52'1 0.1 26.9
2018-Apr-07 02:00N 15°02' E 121°52'0 0.0 26.4
2018-Apr-07 01:45N 15°02' E 121°52'1 0.8 26.2
2018-Apr-07 01:00N 15°02' E 121°52'1 2.3 25.6
2018-Apr-07 00:45N 15°02' E 121°52'1 1.2 25.6
2018-Apr-07 00:15N 15°01' E 121°52'0 0.0 25.1
2018-Apr-07 00:00N 15°01' E 121°52'0 0.0 24.9
2018-Apr-06 22:30N 15°01' E 121°52'1 2.3 23.5
2018-Apr-06 22:15N 15°01' E 121°52'0 0.0 23.5
2018-Apr-06 22:00N 15°01' E 121°52'1 2.3 23.7
2018-Apr-06 21:45N 15°01' E 121°52'1 0.4 23.8
2018-Apr-06 20:15N 15°01' E 121°52'0 0.0 24.0
2018-Apr-06 19:45N 15°01' E 121°52'0 0.0 24.1
2018-Apr-06 14:00N 15°01' E 121°52'0 0.0 24.2
2018-Apr-06 13:15N 15°01' E 121°52'0 0.0 24.3
2018-Apr-06 12:30N 15°01' E 121°52'1 2.4 24.9
2018-Apr-06 12:15N 15°02' E 121°52'0 0.0 24.8
2018-Apr-06 11:45N 15°02' E 121°52'2289.2 25.0
2018-Apr-06 11:30N 15°05' E 122°15'0 0.0 24.9
2018-Apr-06 10:45N 15°05' E 122°15'0 0.0 25.4
2018-Apr-06 10:00N 15°05' E 122°15'0 0.0 25.3
2018-Apr-06 09:45N 15°05' E 122°15'0 0.0 25.5
2018-Apr-06 09:15N 15°05' E 122°15'0 0.0 25.4
2018-Apr-06 09:00N 15°05' E 122°15'0 0.0 25.4
2018-Apr-06 08:45N 15°05' E 122°15'0 0.0 25.4
2018-Apr-06 07:15N 15°05' E 122°15'0 0.0 28.2
2018-Apr-06 07:00N 15°05' E 122°15'3 0.7 28.1
2018-Apr-06 02:45N 15°08' E 122°16'0 0.0 27.9
2018-Apr-06 02:15N 15°08' E 122°16'1 3.3 27.8
2018-Apr-06 02:00N 15°09' E 122°15'0 0.0 27.8
2018-Apr-06 01:15N 15°09' E 122°15'0 0.0 27.7
2018-Apr-06 01:00N 15°09' E 122°15'1 1.7 27.6
2018-Apr-06 00:30N 15°10' E 122°16'0 0.0 27.5
2018-Apr-06 00:15N 15°10' E 122°16'1 0.9 27.6
2018-Apr-05 22:45N 15°09' E 122°14'0 0.0 27.6
2018-Apr-05 22:30N 15°09' E 122°14'1 3.3 27.6
2018-Apr-05 22:15N 15°10' E 122°14'1 0.7 27.6
2018-Apr-05 21:00N 15°09' E 122°14'1 2.3 27.7
2018-Apr-05 20:45N 15°09' E 122°14'2 2.2 27.7
2018-Apr-05 20:00N 15°10' E 122°13'0 0.0 27.7
2018-Apr-05 19:45N 15°10' E 122°13'0 0.0 27.7
2018-Apr-05 18:15N 15°10' E 122°13'0 0.0 27.7
2018-Apr-05 14:15N 15°10' E 122°13'0 0.0 28.0
2018-Apr-05 13:45N 15°10' E 122°13'0 0.0 28.0
2018-Apr-05 13:30N 15°10' E 122°13'0 0.0 28.0
2018-Apr-05 12:45N 15°10' E 122°13'0 0.0 28.1
2018-Apr-05 12:30N 15°10' E 122°13'1 1.2 28.1
2018-Apr-05 12:00N 15°10' E 122°12'0 0.0 28.1
2018-Apr-05 11:45N 15°10' E 122°12'1 3.3 28.1
2018-Apr-05 11:30N 15°11' E 122°11'0 0.0 28.1
2018-Apr-05 11:15N 15°11' E 122°11'1 0.8 28.1
2018-Apr-05 10:15N 15°10' E 122°12'0 0.0 28.1
2018-Apr-05 10:00N 15°10' E 122°12'0 0.0 28.1
2018-Apr-05 09:45N 15°10' E 122°12'0 0.0 28.1
2018-Apr-05 09:30N 15°10' E 122°12'1 0.6 28.1
2018-Apr-05 07:30N 15°09' E 122°12'0 0.0 28.2
2018-Apr-05 07:15N 15°09' E 122°12'1 0.3 28.3
2018-Apr-05 02:30N 15°10' E 122°12'0 0.0 27.9
2018-Apr-05 01:00N 15°10' E 122°12'1 3.3 27.8
2018-Apr-05 00:45N 15°11' E 122°13'0 0.0 27.8
2018-Apr-05 00:30N 15°11' E 122°13'0 0.0 27.8
2018-Apr-05 00:00N 15°11' E 122°13'0 0.0 27.8
2018-Apr-04 23:45N 15°11' E 122°13'2 2.4 27.8
2018-Apr-04 23:00N 15°09' E 122°13'0 0.0 27.7
2018-Apr-04 22:45N 15°09' E 122°13'1 0.4 27.8
2018-Apr-04 21:15N 15°08' E 122°13'1 0.6 27.7
2018-Apr-04 20:15N 15°08' E 122°12'0 0.0 27.7
2018-Apr-04 20:00N 15°08' E 122°12'1 0.9 27.7
2018-Apr-04 18:30N 15°07' E 122°13'0 0.0 27.7
2018-Apr-04 14:00N 15°07' E 122°13'0 0.0 27.9
2018-Apr-04 13:00N 15°07' E 122°13'0 0.0 27.8
2018-Apr-04 12:30N 15°07' E 122°13'1 2.4 27.8
2018-Apr-04 12:15N 15°07' E 122°13'0 0.0 27.8
2018-Apr-04 12:00N 15°07' E 122°13'0 0.0 27.8
2018-Apr-04 11:30N 15°07' E 122°13'0 0.0 27.8
2018-Apr-04 11:15N 15°07' E 122°13'0 0.0 27.8
2018-Apr-04 10:30N 15°07' E 122°13'0 0.0 27.8
2018-Apr-04 10:15N 15°07' E 122°13'0 0.0 27.8
2018-Apr-04 10:00N 15°07' E 122°13'2 1.3 27.8
2018-Apr-04 08:45N 15°05' E 122°14'1 3.3 27.8
2018-Apr-04 08:30N 15°05' E 122°14'0 0.0 27.8
2018-Apr-04 07:45N 15°05' E 122°14'0 0.0 27.9
2018-Apr-04 07:30N 15°05' E 122°14'1 0.4 28.1
2018-Apr-04 06:00N 15°04' E 122°14'0 0.0 28.0
2018-Apr-04 05:45N 15°04' E 122°14'1 0.5 27.9
2018-Apr-04 03:00N 15°05' E 122°16'0 0.0 27.7
2018-Apr-04 02:45N 15°05' E 122°16'0 0.0 27.7
2018-Apr-04 02:00N 15°05' E 122°16'1 3.3 27.7
2018-Apr-04 01:45N 15°04' E 122°16'0 0.0 27.6
2018-Apr-04 01:15N 15°04' E 122°16'1 2.4 27.7
2018-Apr-04 01:00N 15°05' E 122°16'1 3.3 27.7
2018-Apr-04 00:45N 15°05' E 122°17'0 0.0 27.7
2018-Apr-04 00:15N 15°05' E 122°17'1 0.6 27.7
2018-Apr-03 23:15N 15°05' E 122°16'0 0.0 27.6
2018-Apr-03 23:00N 15°05' E 122°16'1 0.5 27.6
2018-Apr-03 21:45N 15°06' E 122°16'0 0.0 27.6
2018-Apr-03 20:30N 15°06' E 122°16'0 0.0 27.6
2018-Apr-03 20:15N 15°06' E 122°16'0 0.0 27.6
2018-Apr-03 20:00N 15°06' E 122°16'1 0.7 27.5
2018-Apr-03 18:45N 15°05' E 122°16'0 0.0 27.6
2018-Apr-03 18:30N 15°05' E 122°16'0 0.0 27.6
2018-Apr-03 14:30N 15°05' E 122°16'0 0.0 27.7
2018-Apr-03 14:15N 15°05' E 122°16'0 0.0 27.7
2018-Apr-03 13:30N 15°05' E 122°16'0 0.0 27.7
2018-Apr-03 13:15N 15°05' E 122°16'1 1.2 27.7
2018-Apr-03 12:45N 15°05' E 122°16'0 0.0 27.8
2018-Apr-03 12:30N 15°05' E 122°16'0 0.0 27.8
2018-Apr-03 12:15N 15°05' E 122°16'0 0.0 27.8
2018-Apr-03 12:00N 15°05' E 122°16'0 0.0 27.8
2018-Apr-03 11:45N 15°05' E 122°16'1 1.1 27.8
2018-Apr-03 11:00N 15°06' E 122°16'0 0.0 27.8
2018-Apr-03 10:45N 15°06' E 122°16'0 0.0 27.8
2018-Apr-03 10:30N 15°06' E 122°16'1 1.0 27.8
2018-Apr-03 09:15N 15°07' E 122°16'0 0.0 27.9
2018-Apr-03 09:00N 15°07' E 122°16'0 0.0 27.9
2018-Apr-03 07:45N 15°07' E 122°16'1 0.6 27.9
2018-Apr-03 06:15N 15°08' E 122°15'0 0.0 27.9
2018-Apr-03 06:00N 15°08' E 122°15'2 0.4 28.0
2018-Apr-03 01:45N 15°10' E 122°15'2 6.7 27.9
2018-Apr-03 01:30N 15°11' E 122°14'0 0.0 27.9
2018-Apr-03 01:00N 15°11' E 122°14'0 0.0 27.9
2018-Apr-03 00:45N 15°11' E 122°14'0 0.0 27.9
2018-Apr-03 00:30N 15°11' E 122°14'1 2.4 27.9
2018-Apr-03 00:00N 15°12' E 122°14'0 0.0 27.9
2018-Apr-02 23:45N 15°12' E 122°14'0 0.0 27.9
2018-Apr-02 23:15N 15°12' E 122°14'0 0.0 27.9
2018-Apr-02 22:30N 15°12' E 122°14'1 2.4 27.9
2018-Apr-02 22:15N 15°13' E 122°14'1 2.4 27.9
2018-Apr-02 22:00N 15°13' E 122°14'0 0.0 27.9
2018-Apr-02 20:45N 15°13' E 122°14'1 5.2 27.9
2018-Apr-02 20:30N 15°14' E 122°13'0 0.0 27.8
2018-Apr-02 19:00N 15°14' E 122°13'0 0.0 27.8
2018-Apr-02 18:45N 15°14' E 122°13'4 0.8 27.8
2018-Apr-02 13:45N 15°17' E 122°10'0 0.0 27.6
2018-Apr-02 13:30N 15°17' E 122°10'1 2.7 27.6
2018-Apr-02 13:00N 15°18' E 122°11'0 0.0 27.6
2018-Apr-02 12:30N 15°18' E 122°11'0 0.0 27.6
2018-Apr-02 12:15N 15°18' E 122°11'0 0.0 27.6
2018-Apr-02 12:00N 15°18' E 122°11'1 1.7 27.6
2018-Apr-02 11:30N 15°19' E 122°10'1 2.4 27.6
2018-Apr-02 11:15N 15°19' E 122°10'0 0.0 27.6
2018-Apr-02 10:45N 15°19' E 122°10'0 0.0 27.6
2018-Apr-02 10:30N 15°19' E 122°10'1 0.8 27.6
2018-Apr-02 09:45N 15°20' E 122°10'2 7.6 27.7
2018-Apr-02 09:30N 15°22' E 122°10'2 1.2 27.7
2018-Apr-02 08:00N 15°23' E 122°10'1 0.3 27.8
2018-Apr-02 06:15N 15°23' E 122°10'4 1.0 27.9
2018-Apr-02 02:00N 15°27' E 122°08'1 5.3 27.9
2018-Apr-02 01:45N 15°28' E 122°09'0 0.0 27.9
2018-Apr-02 01:15N 15°28' E 122°09'0 0.0 27.9
2018-Apr-02 01:00N 15°28' E 122°09'0 0.0 27.9
2018-Apr-02 00:45N 15°28' E 122°09'1 1.2 27.9
2018-Apr-02 00:15N 15°29' E 122°09'0 0.0 27.9
2018-Apr-02 00:00N 15°29' E 122°09'1 2.7 27.9
2018-Apr-01 23:30N 15°30' E 122°10'0 0.0 27.9
2018-Apr-01 22:45N 15°30' E 122°10'1 5.3 27.9
2018-Apr-01 22:30N 15°31' E 122°10'0 0.0 27.9
2018-Apr-01 21:15N 15°31' E 122°10'1 2.4 27.9
2018-Apr-01 21:00N 15°32' E 122°10'2 8.6 27.9
2018-Apr-01 20:45N 15°34' E 122°11'0 0.0 27.9
2018-Apr-01 19:15N 15°34' E 122°11'417.1 27.8
2018-Apr-01 19:00N 15°37' E 122°14'0 0.0 27.8
2018-Apr-01 14:00N 15°37' E 122°14'2 5.0 27.7
2018-Apr-01 13:30N 15°39' E 122°16'2 6.7 27.7
2018-Apr-01 13:15N 15°38' E 122°14'1 1.7 27.7
2018-Apr-01 12:30N 15°38' E 122°16'0 0.0 27.7
2018-Apr-01 12:15N 15°38' E 122°16'1 2.6 27.7
2018-Apr-01 11:45N 15°39' E 122°17'0 0.0 27.7
2018-Apr-01 11:30N 15°39' E 122°17'0 0.0 27.7
2018-Apr-01 11:00N 15°39' E 122°17'0 0.0 27.7
2018-Apr-01 10:45N 15°39' E 122°17'3 5.9 27.7
2018-Apr-01 10:15N 15°40' E 122°20'0 0.0 27.7
2018-Apr-01 10:00N 15°40' E 122°20'0 0.0 27.7
2018-Apr-01 08:30N 15°40' E 122°20'0 0.0 27.8
2018-Apr-01 08:15N 15°40' E 122°20'0 0.0 27.8
2018-Apr-01 08:00N 15°40' E 122°20'1 0.4 27.8
2018-Apr-01 06:30N 15°40' E 122°20'6 1.1 27.8
2018-Apr-01 01:15N 15°40' E 122°26'0 0.0 27.7
2018-Apr-01 00:30N 15°40' E 122°26'1 1.5 27.6
2018-Mar-31 23:45N 15°40' E 122°28'0 0.0 27.6
2018-Mar-31 23:30N 15°40' E 122°28'0 0.0 27.6
2018-Mar-31 23:00N 15°40' E 122°28'0 0.0 27.6
2018-Mar-31 22:45N 15°40' E 122°28'2 2.4 27.6
2018-Mar-31 22:00N 15°40' E 122°29'1 2.3 27.7
2018-Mar-31 21:45N 15°40' E 122°29'1 2.3 27.7
2018-Mar-31 21:30N 15°40' E 122°29'1 2.3 27.7
2018-Mar-31 21:15N 15°40' E 122°30'2 7.3 27.7
2018-Mar-31 21:00N 15°39' E 122°32'0 0.0 27.7
2018-Mar-31 20:45N 15°39' E 122°32'0 0.0 27.7
2018-Mar-31 20:00N 15°39' E 122°32'3 3.5 27.7
2018-Mar-31 19:15N 15°38' E 122°34'   27.7
Track history (hours):
 
Tides and Currents Weather Stations Pressure Air Temp Water Temp Dewpoint Dewpoint Depression Visibility Wind Speed Wind Dir Waves Ship Positions

Drifting buoy 52670

Last reported at 2018-Apr-10 19:00 UTC. Time now 2018-Apr-25 21:38 UTC.
Position N 15°02' E 121°52'.
Warning: this ship's position is 15 days out of date.

Water temperature 26.9 ° C

Date/timePositionNaut miles runAvg speedWind from/ knotsBaromVisibWave heightAir tempDewpointWater temp
2018-Apr-10 19:00N 15°02' E 121°52'0 0.0 26.9
2018-Apr-10 14:15N 15°02' E 121°52'0 0.0 27.1
2018-Apr-10 13:45N 15°02' E 121°52'0 0.0 27.1
2018-Apr-10 13:30N 15°02' E 121°52'1 0.8 27.1
2018-Apr-10 12:45N 15°01' E 121°52'0 0.0 27.1
2018-Apr-10 12:30N 15°01' E 121°52'1 1.2 27.1
2018-Apr-10 12:00N 15°02' E 121°52'0 0.0 27.1
2018-Apr-10 11:45N 15°02' E 121°52'0 0.0 27.1
2018-Apr-10 10:45N 15°02' E 121°52'0 0.0 27.1
2018-Apr-10 10:30N 15°02' E 121°52'0 0.0 27.1
2018-Apr-10 10:15N 15°02' E 121°52'0 0.0 27.1
2018-Apr-10 09:45N 15°02' E 121°52'1 3.3 27.2
2018-Apr-10 09:30N 15°02' E 121°52'0 0.0 27.3
2018-Apr-10 08:45N 15°02' E 121°52'1 1.2 27.4
2018-Apr-10 08:15N 15°02' E 121°52'0 0.0 27.4
2018-Apr-10 08:00N 15°02' E 121°52'0 0.0 27.4
2018-Apr-10 06:30N 15°02' E 121°52'0 0.0 27.3
2018-Apr-10 06:15N 15°02' E 121°52'1 0.2 27.4
2018-Apr-10 02:30N 15°02' E 121°52'0 0.0 27.2
2018-Apr-10 02:15N 15°02' E 121°52'0 0.0 27.2
2018-Apr-10 00:45N 15°02' E 121°52'0 0.0 060 / 211005.9 9.3 7.027.1
2018-Apr-09 23:45N 15°02' E 121°52'0 0.0 26.5
2018-Apr-09 23:30N 15°02' E 121°52'0 0.0 25.9
2018-Apr-09 22:00N 15°02' E 121°52'0 0.0 26.0
2018-Apr-09 21:00N 15°02' E 121°52'0 0.0 26.1
2018-Apr-09 20:45N 15°02' E 121°52'0 0.0 26.1
2018-Apr-09 20:15N 15°02' E 121°52'0 0.0 26.0
2018-Apr-09 19:15N 15°02' E 121°52'0 0.0 26.0
2018-Apr-09 19:00N 15°02' E 121°52'0 0.0 25.9
2018-Apr-09 14:00N 15°02' E 121°52'0 0.0 25.2
2018-Apr-09 13:45N 15°02' E 121°52'0 0.0 25.3
2018-Apr-09 13:00N 15°02' E 121°52'0 0.0 25.8
2018-Apr-09 12:45N 15°02' E 121°52'0 0.0 25.8
2018-Apr-09 12:30N 15°02' E 121°52'1 2.4 25.9
2018-Apr-09 12:15N 15°01' E 121°52'0 0.0 25.9
2018-Apr-09 11:00N 15°01' E 121°52'1 0.8 25.5
2018-Apr-09 10:00N 15°02' E 121°52'0 0.0 26.4
2018-Apr-09 09:15N 15°02' E 121°52'0 0.0 26.0
2018-Apr-09 06:45N 15°02' E 121°52'0 0.0 25.6
2018-Apr-09 06:30N 15°02' E 121°52'1 0.1 25.6
2018-Apr-09 01:15N 15°02' E 121°52'0 0.0 24.5
2018-Apr-09 01:00N 15°02' E 121°52'1 0.8 24.3
2018-Apr-09 00:15N 15°01' E 121°52'0 0.0 25.1
2018-Apr-09 00:00N 15°01' E 121°52'0 0.0 25.5
2018-Apr-08 23:45N 15°01' E 121°52'1 0.8 25.1
2018-Apr-08 23:00N 15°02' E 121°52'1 1.2 24.9
2018-Apr-08 22:30N 15°01' E 121°52'1 2.4 25.1
2018-Apr-08 22:15N 15°02' E 121°52'0 0.0 25.0
2018-Apr-08 22:00N 15°02' E 121°52'0 0.0 25.1
2018-Apr-08 21:30N 15°02' E 121°52'1 3.3 24.9
2018-Apr-08 21:15N 15°01' E 121°52'0 0.0 24.8
2018-Apr-08 21:00N 15°01' E 121°52'0 0.0 24.5
2018-Apr-08 20:45N 15°01' E 121°52'1 0.7 24.5
2018-Apr-08 19:30N 15°02' E 121°52'0 0.0 26.4
2018-Apr-08 19:15N 15°02' E 121°52'1 0.1 26.4
2018-Apr-08 13:30N 15°01' E 121°51'0 0.0 26.4
2018-Apr-08 13:15N 15°01' E 121°51'1 1.7 26.5
2018-Apr-08 12:45N 15°02' E 121°52'0 0.0 26.5
2018-Apr-08 12:30N 15°02' E 121°52'0 0.0 26.5
2018-Apr-08 11:45N 15°02' E 121°52'0 0.0 26.6
2018-Apr-08 11:30N 15°02' E 121°52'1 2.3 26.7
2018-Apr-08 11:15N 15°02' E 121°52'0 0.0 26.6
2018-Apr-08 11:00N 15°02' E 121°52'0 0.0 26.7
2018-Apr-08 10:30N 15°02' E 121°52'0 0.0 26.6
2018-Apr-08 09:45N 15°02' E 121°52'0 0.0 26.8
2018-Apr-08 08:45N 15°02' E 121°52'1 2.3 26.9
2018-Apr-08 08:30N 15°02' E 121°52'0 0.0 26.9
2018-Apr-08 06:45N 15°02' E 121°52'1 0.1 27.7
2018-Apr-08 01:30N 15°02' E 121°52'0 0.0 26.6
2018-Apr-08 00:30N 15°02' E 121°52'1 1.2 26.2
2018-Apr-08 00:00N 15°02' E 121°52'1 0.5 26.0
2018-Apr-07 22:15N 15°01' E 121°52'1 1.2 25.3
2018-Apr-07 21:45N 15°01' E 121°52'0 0.0 25.8
2018-Apr-07 21:30N 15°01' E 121°52'0 0.0 25.9
2018-Apr-07 21:15N 15°01' E 121°52'1 0.4 25.9
2018-Apr-07 19:45N 15°01' E 121°52'0 0.0 25.6
2018-Apr-07 19:30N 15°01' E 121°52'0 0.0 25.6
2018-Apr-07 13:45N 15°01' E 121°52'0 0.0 26.5
2018-Apr-07 13:30N 15°01' E 121°52'0 0.0 26.6
2018-Apr-07 13:00N 15°01' E 121°52'0 0.0 26.6
2018-Apr-07 12:45N 15°01' E 121°52'0 0.0 26.6
2018-Apr-07 12:00N 15°01' E 121°52'1 1.7 26.7
2018-Apr-07 11:30N 15°02' E 121°52'0 0.0 26.8
2018-Apr-07 11:15N 15°02' E 121°52'0 0.0 26.8
2018-Apr-07 10:45N 15°02' E 121°52'0 0.0 26.9
2018-Apr-07 10:30N 15°02' E 121°52'0 0.0 26.8
2018-Apr-07 10:15N 15°02' E 121°52'1 1.2 26.7
2018-Apr-07 09:45N 15°02' E 121°52'1 1.2 26.6
2018-Apr-07 09:15N 15°02' E 121°52'0 0.0 26.9
2018-Apr-07 08:45N 15°02' E 121°52'1 0.1 26.9
2018-Apr-07 02:00N 15°02' E 121°52'0 0.0 26.4
2018-Apr-07 01:45N 15°02' E 121°52'1 0.8 26.2
2018-Apr-07 01:00N 15°02' E 121°52'1 2.3 25.6
2018-Apr-07 00:45N 15°02' E 121°52'1 1.2 25.6
2018-Apr-07 00:15N 15°01' E 121°52'0 0.0 25.1
2018-Apr-07 00:00N 15°01' E 121°52'0 0.0 24.9
2018-Apr-06 22:30N 15°01' E 121°52'1 2.3 23.5
2018-Apr-06 22:15N 15°01' E 121°52'0 0.0 23.5
2018-Apr-06 22:00N 15°01' E 121°52'1 2.3 23.7
2018-Apr-06 21:45N 15°01' E 121°52'1 0.4 23.8
2018-Apr-06 20:15N 15°01' E 121°52'0 0.0 24.0
2018-Apr-06 19:45N 15°01' E 121°52'0 0.0 24.1
2018-Apr-06 14:00N 15°01' E 121°52'0 0.0 24.2
2018-Apr-06 13:15N 15°01' E 121°52'0 0.0 24.3
2018-Apr-06 12:30N 15°01' E 121°52'1 2.4 24.9
2018-Apr-06 12:15N 15°02' E 121°52'0 0.0 24.8
2018-Apr-06 11:45N 15°02' E 121°52'2289.2 25.0
2018-Apr-06 11:30N 15°05' E 122°15'0 0.0 24.9
2018-Apr-06 10:45N 15°05' E 122°15'0 0.0 25.4
2018-Apr-06 10:00N 15°05' E 122°15'0 0.0 25.3
2018-Apr-06 09:45N 15°05' E 122°15'0 0.0 25.5
2018-Apr-06 09:15N 15°05' E 122°15'0 0.0 25.4
2018-Apr-06 09:00N 15°05' E 122°15'0 0.0 25.4
2018-Apr-06 08:45N 15°05' E 122°15'0 0.0 25.4
2018-Apr-06 07:15N 15°05' E 122°15'0 0.0 28.2
2018-Apr-06 07:00N 15°05' E 122°15'3 0.7 28.1
2018-Apr-06 02:45N 15°08' E 122°16'0 0.0 27.9
2018-Apr-06 02:15N 15°08' E 122°16'1 3.3 27.8
2018-Apr-06 02:00N 15°09' E 122°15'0 0.0 27.8
2018-Apr-06 01:15N 15°09' E 122°15'0 0.0 27.7
2018-Apr-06 01:00N 15°09' E 122°15'1 1.7 27.6
2018-Apr-06 00:30N 15°10' E 122°16'0 0.0 27.5
2018-Apr-06 00:15N 15°10' E 122°16'1 0.9 27.6
2018-Apr-05 22:45N 15°09' E 122°14'0 0.0 27.6
2018-Apr-05 22:30N 15°09' E 122°14'1 3.3 27.6
2018-Apr-05 22:15N 15°10' E 122°14'1 0.7 27.6
2018-Apr-05 21:00N 15°09' E 122°14'1 2.3 27.7
2018-Apr-05 20:45N 15°09' E 122°14'2 2.2 27.7
2018-Apr-05 20:00N 15°10' E 122°13'0 0.0 27.7
2018-Apr-05 19:45N 15°10' E 122°13'0 0.0 27.7
2018-Apr-05 18:15N 15°10' E 122°13'0 0.0 27.7
2018-Apr-05 14:15N 15°10' E 122°13'0 0.0 28.0
2018-Apr-05 13:45N 15°10' E 122°13'0 0.0 28.0
2018-Apr-05 13:30N 15°10' E 122°13'0 0.0 28.0
2018-Apr-05 12:45N 15°10' E 122°13'0 0.0 28.1
2018-Apr-05 12:30N 15°10' E 122°13'1 1.2 28.1
2018-Apr-05 12:00N 15°10' E 122°12'0 0.0 28.1
2018-Apr-05 11:45N 15°10' E 122°12'1 3.3 28.1
2018-Apr-05 11:30N 15°11' E 122°11'0 0.0 28.1
2018-Apr-05 11:15N 15°11' E 122°11'1 0.8 28.1
2018-Apr-05 10:15N 15°10' E 122°12'0 0.0 28.1
2018-Apr-05 10:00N 15°10' E 122°12'0 0.0 28.1
2018-Apr-05 09:45N 15°10' E 122°12'0 0.0 28.1
2018-Apr-05 09:30N 15°10' E 122°12'1 0.6 28.1
2018-Apr-05 07:30N 15°09' E 122°12'0 0.0 28.2
2018-Apr-05 07:15N 15°09' E 122°12'1 0.3 28.3
2018-Apr-05 02:30N 15°10' E 122°12'0 0.0 27.9
2018-Apr-05 01:00N 15°10' E 122°12'1 3.3 27.8
2018-Apr-05 00:45N 15°11' E 122°13'0 0.0 27.8
2018-Apr-05 00:30N 15°11' E 122°13'0 0.0 27.8
2018-Apr-05 00:00N 15°11' E 122°13'0 0.0 27.8
2018-Apr-04 23:45N 15°11' E 122°13'2 2.4 27.8
2018-Apr-04 23:00N 15°09' E 122°13'0 0.0 27.7
2018-Apr-04 22:45N 15°09' E 122°13'1 0.4 27.8
2018-Apr-04 21:15N 15°08' E 122°13'1 0.6 27.7
2018-Apr-04 20:15N 15°08' E 122°12'0 0.0 27.7
2018-Apr-04 20:00N 15°08' E 122°12'1 0.9 27.7
2018-Apr-04 18:30N 15°07' E 122°13'0 0.0 27.7
2018-Apr-04 14:00N 15°07' E 122°13'0 0.0 27.9
2018-Apr-04 13:00N 15°07' E 122°13'0 0.0 27.8
2018-Apr-04 12:30N 15°07' E 122°13'1 2.4 27.8
2018-Apr-04 12:15N 15°07' E 122°13'0 0.0 27.8
2018-Apr-04 12:00N 15°07' E 122°13'0 0.0 27.8
2018-Apr-04 11:30N 15°07' E 122°13'0 0.0 27.8
2018-Apr-04 11:15N 15°07' E 122°13'0 0.0 27.8
2018-Apr-04 10:30N 15°07' E 122°13'0 0.0 27.8
2018-Apr-04 10:15N 15°07' E 122°13'0 0.0 27.8
2018-Apr-04 10:00N 15°07' E 122°13'2 1.3 27.8
2018-Apr-04 08:45N 15°05' E 122°14'1 3.3 27.8
2018-Apr-04 08:30N 15°05' E 122°14'0 0.0 27.8
2018-Apr-04 07:45N 15°05' E 122°14'0 0.0 27.9
2018-Apr-04 07:30N 15°05' E 122°14'1 0.4 28.1
2018-Apr-04 06:00N 15°04' E 122°14'0 0.0 28.0
2018-Apr-04 05:45N 15°04' E 122°14'1 0.5 27.9
2018-Apr-04 03:00N 15°05' E 122°16'0 0.0 27.7
2018-Apr-04 02:45N 15°05' E 122°16'0 0.0 27.7
2018-Apr-04 02:00N 15°05' E 122°16'1 3.3 27.7
2018-Apr-04 01:45N 15°04' E 122°16'0 0.0 27.6
2018-Apr-04 01:15N 15°04' E 122°16'1 2.4 27.7
2018-Apr-04 01:00N 15°05' E 122°16'1 3.3 27.7
2018-Apr-04 00:45N 15°05' E 122°17'0 0.0 27.7
2018-Apr-04 00:15N 15°05' E 122°17'1 0.6 27.7
2018-Apr-03 23:15N 15°05' E 122°16'0 0.0 27.6
2018-Apr-03 23:00N 15°05' E 122°16'1 0.5 27.6
2018-Apr-03 21:45N 15°06' E 122°16'0 0.0 27.6
2018-Apr-03 20:30N 15°06' E 122°16'0 0.0 27.6
2018-Apr-03 20:15N 15°06' E 122°16'0 0.0 27.6
2018-Apr-03 20:00N 15°06' E 122°16'1 0.7 27.5
2018-Apr-03 18:45N 15°05' E 122°16'0 0.0 27.6
2018-Apr-03 18:30N 15°05' E 122°16'0 0.0 27.6
2018-Apr-03 14:30N 15°05' E 122°16'0 0.0 27.7
2018-Apr-03 14:15N 15°05' E 122°16'0 0.0 27.7
2018-Apr-03 13:30N 15°05' E 122°16'0 0.0 27.7
2018-Apr-03 13:15N 15°05' E 122°16'1 1.2 27.7
2018-Apr-03 12:45N 15°05' E 122°16'0 0.0 27.8
2018-Apr-03 12:30N 15°05' E 122°16'0 0.0 27.8
2018-Apr-03 12:15N 15°05' E 122°16'0 0.0 27.8
2018-Apr-03 12:00N 15°05' E 122°16'0 0.0 27.8
2018-Apr-03 11:45N 15°05' E 122°16'1 1.1 27.8
2018-Apr-03 11:00N 15°06' E 122°16'0 0.0 27.8
2018-Apr-03 10:45N 15°06' E 122°16'0 0.0 27.8
2018-Apr-03 10:30N 15°06' E 122°16'1 1.0 27.8
2018-Apr-03 09:15N 15°07' E 122°16'0 0.0 27.9
2018-Apr-03 09:00N 15°07' E 122°16'0 0.0 27.9
2018-Apr-03 07:45N 15°07' E 122°16'1 0.6 27.9
2018-Apr-03 06:15N 15°08' E 122°15'0 0.0 27.9
2018-Apr-03 06:00N 15°08' E 122°15'2 0.4 28.0
2018-Apr-03 01:45N 15°10' E 122°15'2 6.7 27.9
2018-Apr-03 01:30N 15°11' E 122°14'0 0.0 27.9
2018-Apr-03 01:00N 15°11' E 122°14'0 0.0 27.9
2018-Apr-03 00:45N 15°11' E 122°14'0 0.0 27.9
2018-Apr-03 00:30N 15°11' E 122°14'1 2.4 27.9
2018-Apr-03 00:00N 15°12' E 122°14'0 0.0 27.9
2018-Apr-02 23:45N 15°12' E 122°14'0 0.0 27.9
2018-Apr-02 23:15N 15°12' E 122°14'0 0.0 27.9
2018-Apr-02 22:30N 15°12' E 122°14'1 2.4 27.9
2018-Apr-02 22:15N 15°13' E 122°14'1 2.4 27.9
2018-Apr-02 22:00N 15°13' E 122°14'0 0.0 27.9
2018-Apr-02 20:45N 15°13' E 122°14'1 5.2 27.9
2018-Apr-02 20:30N 15°14' E 122°13'0 0.0 27.8
2018-Apr-02 19:00N 15°14' E 122°13'0 0.0 27.8
2018-Apr-02 18:45N 15°14' E 122°13'4 0.8 27.8
2018-Apr-02 13:45N 15°17' E 122°10'0 0.0 27.6
2018-Apr-02 13:30N 15°17' E 122°10'1 2.7 27.6
2018-Apr-02 13:00N 15°18' E 122°11'0 0.0 27.6
2018-Apr-02 12:30N 15°18' E 122°11'0 0.0 27.6
2018-Apr-02 12:15N 15°18' E 122°11'0 0.0 27.6
2018-Apr-02 12:00N 15°18' E 122°11'1 1.7 27.6
2018-Apr-02 11:30N 15°19' E 122°10'1 2.4 27.6
2018-Apr-02 11:15N 15°19' E 122°10'0 0.0 27.6
2018-Apr-02 10:45N 15°19' E 122°10'0 0.0 27.6
2018-Apr-02 10:30N 15°19' E 122°10'1 0.8 27.6
2018-Apr-02 09:45N 15°20' E 122°10'2 7.6 27.7
2018-Apr-02 09:30N 15°22' E 122°10'2 1.2 27.7
2018-Apr-02 08:00N 15°23' E 122°10'1 0.3 27.8
2018-Apr-02 06:15N 15°23' E 122°10'4 1.0 27.9
2018-Apr-02 02:00N 15°27' E 122°08'1 5.3 27.9
2018-Apr-02 01:45N 15°28' E 122°09'0 0.0 27.9
2018-Apr-02 01:15N 15°28' E 122°09'0 0.0 27.9
2018-Apr-02 01:00N 15°28' E 122°09'0 0.0 27.9
2018-Apr-02 00:45N 15°28' E 122°09'1 1.2 27.9
2018-Apr-02 00:15N 15°29' E 122°09'0 0.0 27.9
2018-Apr-02 00:00N 15°29' E 122°09'1 2.7 27.9
2018-Apr-01 23:30N 15°30' E 122°10'0 0.0 27.9
2018-Apr-01 22:45N 15°30' E 122°10'1 5.3 27.9
2018-Apr-01 22:30N 15°31' E 122°10'0 0.0 27.9
2018-Apr-01 21:15N 15°31' E 122°10'1 2.4 27.9
2018-Apr-01 21:00N 15°32' E 122°10'2 8.6 27.9
2018-Apr-01 20:45N 15°34' E 122°11'0 0.0 27.9
2018-Apr-01 19:15N 15°34' E 122°11'417.1 27.8
2018-Apr-01 19:00N 15°37' E 122°14'0 0.0 27.8
2018-Apr-01 14:00N 15°37' E 122°14'2 5.0 27.7
2018-Apr-01 13:30N 15°39' E 122°16'2 6.7 27.7
2018-Apr-01 13:15N 15°38' E 122°14'1 1.7 27.7
2018-Apr-01 12:30N 15°38' E 122°16'0 0.0 27.7
2018-Apr-01 12:15N 15°38' E 122°16'1 2.6 27.7
2018-Apr-01 11:45N 15°39' E 122°17'0 0.0 27.7
2018-Apr-01 11:30N 15°39' E 122°17'0 0.0 27.7
2018-Apr-01 11:00N 15°39' E 122°17'0 0.0 27.7
2018-Apr-01 10:45N 15°39' E 122°17'3 5.9 27.7
2018-Apr-01 10:15N 15°40' E 122°20'0 0.0 27.7
2018-Apr-01 10:00N 15°40' E 122°20'0 0.0 27.7
2018-Apr-01 08:30N 15°40' E 122°20'0 0.0 27.8
2018-Apr-01 08:15N 15°40' E 122°20'0 0.0 27.8
2018-Apr-01 08:00N 15°40' E 122°20'1 0.4 27.8
2018-Apr-01 06:30N 15°40' E 122°20'6 1.1 27.8
2018-Apr-01 01:15N 15°40' E 122°26'0 0.0 27.7
2018-Apr-01 00:30N 15°40' E 122°26'1 1.5 27.6
2018-Mar-31 23:45N 15°40' E 122°28'0 0.0 27.6
2018-Mar-31 23:30N 15°40' E 122°28'0 0.0 27.6
2018-Mar-31 23:00N 15°40' E 122°28'0 0.0 27.6
2018-Mar-31 22:45N 15°40' E 122°28'2 2.4 27.6
2018-Mar-31 22:00N 15°40' E 122°29'1 2.3 27.7
2018-Mar-31 21:45N 15°40' E 122°29'1 2.3 27.7
2018-Mar-31 21:30N 15°40' E 122°29'1 2.3 27.7
2018-Mar-31 21:15N 15°40' E 122°30'2 7.3 27.7
2018-Mar-31 21:00N 15°39' E 122°32'0 0.0 27.7
2018-Mar-31 20:45N 15°39' E 122°32'0 0.0 27.7
2018-Mar-31 20:00N 15°39' E 122°32'3 3.5 27.7
2018-Mar-31 19:15N 15°38' E 122°34'   27.7

Dump ship's entire track history